sensor_id;sensor_type;location;lat;lon;timestamp;pressure;altitude;pressure_sealevel;temperature;humidity
10712;BME280;5407;51.234;6.804;2022-09-13T00:01:09;100573.03;;;24.93;nan
10712;BME280;5407;51.234;6.804;2022-09-13T00:03:36;100570.03;;;24.88;nan
10712;BME280;5407;51.234;6.804;2022-09-13T00:06:08;100576.66;;;24.90;nan
10712;BME280;5407;51.234;6.804;2022-09-13T00:08:36;100563.31;;;24.89;nan
10712;BME280;5407;51.234;6.804;2022-09-13T00:11:04;100559.31;;;24.90;nan
10712;BME280;5407;51.234;6.804;2022-09-13T00:13:31;100549.97;;;24.87;nan
10712;BME280;5407;51.234;6.804;2022-09-13T00:15:58;100543.66;;;24.87;nan
10712;BME280;5407;51.234;6.804;2022-09-13T00:18:27;100537.03;;;24.84;nan
10712;BME280;5407;51.234;6.804;2022-09-13T00:21:03;100532.50;;;24.90;nan
10712;BME280;5407;51.234;6.804;2022-09-13T00:23:31;100542.75;;;24.77;nan
10712;BME280;5407;51.234;6.804;2022-09-13T00:26:07;100540.88;;;24.74;nan
10712;BME280;5407;51.234;6.804;2022-09-13T00:28:35;100523.44;;;24.77;nan
10712;BME280;5407;51.234;6.804;2022-09-13T00:31:04;100525.66;;;24.82;nan
10712;BME280;5407;51.234;6.804;2022-09-13T00:33:31;100534.47;;;24.77;nan
10712;BME280;5407;51.234;6.804;2022-09-13T00:36:02;100536.91;;;24.75;nan
10712;BME280;5407;51.234;6.804;2022-09-13T00:38:29;100543.97;;;24.76;nan
10712;BME280;5407;51.234;6.804;2022-09-13T00:40:56;100547.06;;;24.78;nan
10712;BME280;5407;51.234;6.804;2022-09-13T00:43:44;100541.41;;;24.69;nan
10712;BME280;5407;51.234;6.804;2022-09-13T00:46:14;100544.97;;;24.70;nan
10712;BME280;5407;51.234;6.804;2022-09-13T00:48:44;100549.94;;;24.75;nan
10712;BME280;5407;51.234;6.804;2022-09-13T00:51:12;100543.22;;;24.76;nan
10712;BME280;5407;51.234;6.804;2022-09-13T00:53:41;100540.00;;;24.77;nan
10712;BME280;5407;51.234;6.804;2022-09-13T00:56:12;100545.50;;;24.77;nan
10712;BME280;5407;51.234;6.804;2022-09-13T00:58:45;100536.91;;;24.75;nan
10712;BME280;5407;51.234;6.804;2022-09-13T01:01:15;100530.94;;;24.77;nan
10712;BME280;5407;51.234;6.804;2022-09-13T01:03:43;100530.50;;;24.78;nan
10712;BME280;5407;51.234;6.804;2022-09-13T01:06:15;100526.19;;;24.77;nan
10712;BME280;5407;51.234;6.804;2022-09-13T01:08:46;100526.97;;;24.78;nan
10712;BME280;5407;51.234;6.804;2022-09-13T01:11:19;100524.66;;;24.76;nan
10712;BME280;5407;51.234;6.804;2022-09-13T01:13:51;100530.16;;;24.76;nan
10712;BME280;5407;51.234;6.804;2022-09-13T01:16:18;100538.13;;;24.74;nan
10712;BME280;5407;51.234;6.804;2022-09-13T01:18:45;100541.41;;;24.69;nan
10712;BME280;5407;51.234;6.804;2022-09-13T01:21:29;100538.13;;;24.74;nan
10712;BME280;5407;51.234;6.804;2022-09-13T01:27:18;100544.41;;;24.75;nan
10712;BME280;5407;51.234;6.804;2022-09-13T01:30:17;100533.81;;;24.73;nan
10712;BME280;5407;51.234;6.804;2022-09-13T01:35:59;100522.09;;;24.69;nan
10712;BME280;5407;51.234;6.804;2022-09-13T01:38:40;100514.72;;;24.66;nan
10712;BME280;5407;51.234;6.804;2022-09-13T01:41:19;100509.19;;;24.66;nan
10712;BME280;5407;51.234;6.804;2022-09-13T01:43:55;100512.06;;;24.63;nan
10712;BME280;5407;51.234;6.804;2022-09-13T01:46:28;100519.78;;;24.55;nan
10712;BME280;5407;51.234;6.804;2022-09-13T01:49:02;100509.09;;;24.57;nan
10712;BME280;5407;51.234;6.804;2022-09-13T01:51:35;100511.50;;;24.55;nan
10712;BME280;5407;51.234;6.804;2022-09-13T01:54:12;100508.75;;;24.55;nan
10712;BME280;5407;51.234;6.804;2022-09-13T01:56:49;100509.63;;;24.52;nan
10712;BME280;5407;51.234;6.804;2022-09-13T01:59:20;100494.28;;;24.51;nan
10712;BME280;5407;51.234;6.804;2022-09-13T02:01:54;100508.59;;;24.46;nan
10712;BME280;5407;51.234;6.804;2022-09-13T02:04:26;100507.72;;;24.49;nan
10712;BME280;5407;51.234;6.804;2022-09-13T02:06:59;100508.94;;;24.48;nan
10712;BME280;5407;51.234;6.804;2022-09-13T02:09:33;100503.63;;;24.41;nan
10712;BME280;5407;51.234;6.804;2022-09-13T02:12:04;100511.03;;;24.44;nan
10712;BME280;5407;51.234;6.804;2022-09-13T02:14:36;100507.16;;;24.42;nan
10712;BME280;5407;51.234;6.804;2022-09-13T02:17:06;100509.47;;;24.43;nan
10712;BME280;5407;51.234;6.804;2022-09-13T02:19:39;100506.72;;;24.43;nan
10712;BME280;5407;51.234;6.804;2022-09-13T02:22:07;100499.31;;;24.40;nan
10712;BME280;5407;51.234;6.804;2022-09-13T02:24:40;100504.06;;;24.40;nan
10712;BME280;5407;51.234;6.804;2022-09-13T02:27:10;100506.38;;;24.41;nan
10712;BME280;5407;51.234;6.804;2022-09-13T02:29:41;100497.78;;;24.39;nan
10712;BME280;5407;51.234;6.804;2022-09-13T02:32:13;100504.19;;;24.36;nan
10712;BME280;5407;51.234;6.804;2022-09-13T02:34:45;100502.59;;;24.35;nan
10712;BME280;5407;51.234;6.804;2022-09-13T02:37:12;100496.41;;;24.31;nan
10712;BME280;5407;51.234;6.804;2022-09-13T02:39:43;100491.56;;;24.35;nan
10712;BME280;5407;51.234;6.804;2022-09-13T02:42:14;100489.28;;;24.34;nan
10712;BME280;5407;51.234;6.804;2022-09-13T02:44:44;100490.91;;;24.31;nan
10712;BME280;5407;51.234;6.804;2022-09-13T02:47:29;100501.59;;;24.29;nan
10712;BME280;5407;51.234;6.804;2022-09-13T02:50:06;100488.34;;;24.24;nan
10712;BME280;5407;51.234;6.804;2022-09-13T02:52:40;100488.81;;;24.23;nan
10712;BME280;5407;51.234;6.804;2022-09-13T02:55:16;100501.13;;;24.18;nan
10712;BME280;5407;51.234;6.804;2022-09-13T02:57:51;100510.94;;;24.19;nan
10712;BME280;5407;51.234;6.804;2022-09-13T03:00:20;100510.88;;;24.23;nan
10712;BME280;5407;51.234;6.804;2022-09-13T03:02:49;100509.41;;;24.18;nan
10712;BME280;5407;51.234;6.804;2022-09-13T03:05:18;100515.72;;;24.19;nan
10712;BME280;5407;51.234;6.804;2022-09-13T03:07:45;100512.16;;;24.18;nan
10712;BME280;5407;51.234;6.804;2022-09-13T03:10:13;100521.97;;;24.19;nan
10712;BME280;5407;51.234;6.804;2022-09-13T03:13:00;100523.53;;;24.20;nan
10712;BME280;5407;51.234;6.804;2022-09-13T03:15:40;100527.50;;;24.19;nan
10712;BME280;5407;51.234;6.804;2022-09-13T03:18:25;100520.44;;;24.18;nan
10712;BME280;5407;51.234;6.804;2022-09-13T03:21:04;100516.13;;;24.17;nan
10712;BME280;5407;51.234;6.804;2022-09-13T03:23:43;100521.31;;;24.15;nan
10712;BME280;5407;51.234;6.804;2022-09-13T03:29:18;100512.69;;;24.13;nan
10712;BME280;5407;51.234;6.804;2022-09-13T03:31:52;100511.16;;;24.12;nan
10712;BME280;5407;51.234;6.804;2022-09-13T03:34:30;100524.47;;;24.01;nan
10712;BME280;5407;51.234;6.804;2022-09-13T03:37:05;100511.34;;;24.05;nan
10712;BME280;5407;51.234;6.804;2022-09-13T03:39:38;100502.56;;;24.10;nan
10712;BME280;5407;51.234;6.804;2022-09-13T03:42:12;100496.25;;;24.10;nan
10712;BME280;5407;51.234;6.804;2022-09-13T03:44:43;100490.75;;;24.10;nan
10712;BME280;5407;51.234;6.804;2022-09-13T03:47:13;100482.81;;;24.12;nan
10712;BME280;5407;51.234;6.804;2022-09-13T03:49:43;100485.34;;;24.06;nan
10712;BME280;5407;51.234;6.804;2022-09-13T03:52:11;100482.94;;;24.08;nan
10712;BME280;5407;51.234;6.804;2022-09-13T03:54:38;100478.28;;;24.05;nan
10712;BME280;5407;51.234;6.804;2022-09-13T03:57:10;100479.03;;;24.06;nan
10712;BME280;5407;51.234;6.804;2022-09-13T03:59:40;100475.19;;;24.03;nan
10712;BME280;5407;51.234;6.804;2022-09-13T04:02:07;100472.09;;;24.01;nan
10712;BME280;5407;51.234;6.804;2022-09-13T04:04:37;100474.53;;;23.99;nan
10712;BME280;5407;51.234;6.804;2022-09-13T04:07:05;100472.19;;;23.98;nan
10712;BME280;5407;51.234;6.804;2022-09-13T04:09:33;100476.16;;;23.97;nan
10712;BME280;5407;51.234;6.804;2022-09-13T04:12:00;100477.81;;;23.94;nan
10712;BME280;5407;51.234;6.804;2022-09-13T04:14:27;100479.38;;;23.95;nan
10712;BME280;5407;51.234;6.804;2022-09-13T04:16:54;100478.16;;;23.96;nan
10712;BME280;5407;51.234;6.804;2022-09-13T04:19:22;100479.38;;;23.95;nan
10712;BME280;5407;51.234;6.804;2022-09-13T04:21:50;100476.28;;;23.93;nan
10712;BME280;5407;51.234;6.804;2022-09-13T04:24:19;100478.69;;;23.91;nan
10712;BME280;5407;51.234;6.804;2022-09-13T04:26:48;100487.78;;;23.88;nan
10712;BME280;5407;51.234;6.804;2022-09-13T04:29:16;100485.84;;;23.89;nan
10712;BME280;5407;51.234;6.804;2022-09-13T04:31:43;100487.47;;;23.86;nan
10712;BME280;5407;51.234;6.804;2022-09-13T04:34:10;100485.50;;;23.87;nan
10712;BME280;5407;51.234;6.804;2022-09-13T04:36:37;100491.44;;;23.85;nan
10712;BME280;5407;51.234;6.804;2022-09-13T04:39:04;100492.22;;;23.86;nan
10712;BME280;5407;51.234;6.804;2022-09-13T04:41:33;100494.72;;;23.80;nan
10712;BME280;5407;51.234;6.804;2022-09-13T04:44:00;100495.50;;;23.81;nan
10712;BME280;5407;51.234;6.804;2022-09-13T04:46:28;100494.72;;;23.80;nan
10712;BME280;5407;51.234;6.804;2022-09-13T04:48:55;100497.09;;;23.78;nan
10712;BME280;5407;51.234;6.804;2022-09-13T04:51:21;100497.56;;;23.77;nan
10712;BME280;5407;51.234;6.804;2022-09-13T04:53:51;100508.13;;;23.78;nan
10712;BME280;5407;51.234;6.804;2022-09-13T04:56:18;100503.47;;;23.75;nan
10712;BME280;5407;51.234;6.804;2022-09-13T04:58:47;100497.97;;;23.75;nan
10712;BME280;5407;51.234;6.804;2022-09-13T05:01:14;100496.75;;;23.76;nan
10712;BME280;5407;51.234;6.804;2022-09-13T05:03:41;100490.16;;;23.74;nan
10712;BME280;5407;51.234;6.804;2022-09-13T05:06:09;100491.44;;;23.70;nan
10712;BME280;5407;51.234;6.804;2022-09-13T05:08:36;100509.84;;;23.73;nan
10712;BME280;5407;51.234;6.804;2022-09-13T05:11:05;100505.56;;;23.72;nan
10712;BME280;5407;51.234;6.804;2022-09-13T05:13:33;100510.03;;;23.66;nan
10712;BME280;5407;51.234;6.804;2022-09-13T05:16:03;100499.03;;;23.66;nan
10712;BME280;5407;51.234;6.804;2022-09-13T05:18:32;100499.03;;;23.66;nan
10712;BME280;5407;51.234;6.804;2022-09-13T05:21:00;100491.97;;;23.65;nan
10712;BME280;5407;51.234;6.804;2022-09-13T05:23:28;100501.78;;;23.66;nan
10712;BME280;5407;51.234;6.804;2022-09-13T05:25:57;100494.38;;;23.63;nan
10712;BME280;5407;51.234;6.804;2022-09-13T05:28:26;100496.47;;;23.59;nan
10712;BME280;5407;51.234;6.804;2022-09-13T05:30:54;100500.44;;;23.58;nan
10712;BME280;5407;51.234;6.804;2022-09-13T05:33:23;100498.00;;;23.60;nan
10712;BME280;5407;51.234;6.804;2022-09-13T05:35:50;100495.25;;;23.60;nan
10712;BME280;5407;51.234;6.804;2022-09-13T05:38:17;100504.72;;;23.59;nan
10712;BME280;5407;51.234;6.804;2022-09-13T05:40:44;100508.16;;;23.63;nan
10712;BME280;5407;51.234;6.804;2022-09-13T05:43:11;100508.16;;;23.63;nan
10712;BME280;5407;51.234;6.804;2022-09-13T05:45:39;100513.22;;;23.64;nan
10712;BME280;5407;51.234;6.804;2022-09-13T05:48:06;100505.41;;;23.63;nan
10712;BME280;5407;51.234;6.804;2022-09-13T05:50:37;100513.31;;;23.61;nan
10712;BME280;5407;51.234;6.804;2022-09-13T05:53:04;100507.47;;;23.59;nan
10712;BME280;5407;51.234;6.804;2022-09-13T05:55:31;100507.47;;;23.59;nan
10712;BME280;5407;51.234;6.804;2022-09-13T05:58:00;100504.72;;;23.59;nan
10712;BME280;5407;51.234;6.804;2022-09-13T06:00:27;100499.22;;;23.59;nan
10712;BME280;5407;51.234;6.804;2022-09-13T06:02:56;100508.69;;;23.58;nan
10712;BME280;5407;51.234;6.804;2022-09-13T06:05:23;100509.44;;;23.58;nan
10712;BME280;5407;51.234;6.804;2022-09-13T06:07:51;100509.91;;;23.57;nan
10712;BME280;5407;51.234;6.804;2022-09-13T06:10:18;100518.16;;;23.57;nan
10712;BME280;5407;51.234;6.804;2022-09-13T06:12:45;100519.78;;;23.54;nan
10712;BME280;5407;51.234;6.804;2022-09-13T06:15:12;100513.50;;;23.54;nan
10712;BME280;5407;51.234;6.804;2022-09-13T06:17:40;100518.22;;;23.53;nan
10712;BME280;5407;51.234;6.804;2022-09-13T06:20:07;100517.47;;;23.53;nan
10712;BME280;5407;51.234;6.804;2022-09-13T06:22:35;100520.56;;;23.55;nan
10712;BME280;5407;51.234;6.804;2022-09-13T06:25:04;100517.47;;;23.53;nan
10712;BME280;5407;51.234;6.804;2022-09-13T06:27:31;100520.56;;;23.55;nan
10712;BME280;5407;51.234;6.804;2022-09-13T06:29:58;100525.75;;;23.53;nan
10712;BME280;5407;51.234;6.804;2022-09-13T06:32:25;100522.63;;;23.51;nan
10712;BME280;5407;51.234;6.804;2022-09-13T06:34:52;100526.16;;;23.51;nan
10712;BME280;5407;51.234;6.804;2022-09-13T06:37:19;100522.31;;;23.49;nan
10712;BME280;5407;51.234;6.804;2022-09-13T06:39:46;100524.59;;;23.50;nan
10712;BME280;5407;51.234;6.804;2022-09-13T06:42:14;100520.66;;;23.51;nan
10712;BME280;5407;51.234;6.804;2022-09-13T06:44:43;100521.84;;;23.50;nan
10712;BME280;5407;51.234;6.804;2022-09-13T06:47:10;100516.78;;;23.49;nan
10712;BME280;5407;51.234;6.804;2022-09-13T06:49:37;100514.38;;;23.51;nan
10712;BME280;5407;51.234;6.804;2022-09-13T06:52:05;100512.84;;;23.50;nan
10712;BME280;5407;51.234;6.804;2022-09-13T06:54:31;100505.78;;;23.49;nan
10712;BME280;5407;51.234;6.804;2022-09-13T06:56:59;100500.28;;;23.49;nan
10712;BME280;5407;51.234;6.804;2022-09-13T06:59:28;100503.38;;;23.51;nan
10712;BME280;5407;51.234;6.804;2022-09-13T07:01:55;100504.91;;;23.52;nan
10712;BME280;5407;51.234;6.804;2022-09-13T07:04:22;100501.81;;;23.50;nan
10712;BME280;5407;51.234;6.804;2022-09-13T07:06:49;100501.81;;;23.50;nan
10712;BME280;5407;51.234;6.804;2022-09-13T07:09:18;100503.03;;;23.49;nan
10712;BME280;5407;51.234;6.804;2022-09-13T07:11:47;100497.53;;;23.49;nan
10712;BME280;5407;51.234;6.804;2022-09-13T07:14:15;100505.78;;;23.49;nan
10712;BME280;5407;51.234;6.804;2022-09-13T07:16:44;100502.56;;;23.50;nan
10712;BME280;5407;51.234;6.804;2022-09-13T07:19:13;100508.53;;;23.49;nan
10712;BME280;5407;51.234;6.804;2022-09-13T07:21:41;100506.53;;;23.49;nan
10712;BME280;5407;51.234;6.804;2022-09-13T07:24:08;100508.88;;;23.51;nan
10712;BME280;5407;51.234;6.804;2022-09-13T07:26:35;100516.00;;;23.48;nan
10712;BME280;5407;51.234;6.804;2022-09-13T07:29:05;100522.19;;;23.52;nan
10712;BME280;5407;51.234;6.804;2022-09-13T07:31:34;100519.88;;;23.51;nan
10712;BME280;5407;51.234;6.804;2022-09-13T07:34:05;100521.44;;;23.52;nan
10712;BME280;5407;51.234;6.804;2022-09-13T07:36:33;100519.09;;;23.50;nan
10712;BME280;5407;51.234;6.804;2022-09-13T07:39:00;100516.78;;;23.49;nan
10712;BME280;5407;51.234;6.804;2022-09-13T07:41:28;100516.69;;;23.52;nan
10712;BME280;5407;51.234;6.804;2022-09-13T07:43:56;100523.75;;;23.53;nan
10712;BME280;5407;51.234;6.804;2022-09-13T07:46:25;100526.94;;;23.52;nan
10712;BME280;5407;51.234;6.804;2022-09-13T07:48:53;100525.41;;;23.51;nan
10712;BME280;5407;51.234;6.804;2022-09-13T07:51:23;100528.50;;;23.53;nan
10712;BME280;5407;51.234;6.804;2022-09-13T07:53:53;100532.78;;;23.54;nan
10712;BME280;5407;51.234;6.804;2022-09-13T07:56:21;100534.41;;;23.51;nan
10712;BME280;5407;51.234;6.804;2022-09-13T07:58:50;100545.00;;;23.53;nan
10712;BME280;5407;51.234;6.804;2022-09-13T08:01:19;100537.16;;;23.51;nan
10712;BME280;5407;51.234;6.804;2022-09-13T08:03:50;100543.47;;;23.52;nan
10712;BME280;5407;51.234;6.804;2022-09-13T08:06:18;100542.25;;;23.53;nan
10712;BME280;5407;51.234;6.804;2022-09-13T08:08:47;100541.06;;;23.54;nan
10712;BME280;5407;51.234;6.804;2022-09-13T08:11:16;100542.59;;;23.55;nan
10712;BME280;5407;51.234;6.804;2022-09-13T08:13:44;100549.66;;;23.56;nan
10712;BME280;5407;51.234;6.804;2022-09-13T08:16:11;100544.22;;;23.52;nan
10712;BME280;5407;51.234;6.804;2022-09-13T08:18:42;100532.78;;;23.54;nan
10712;BME280;5407;51.234;6.804;2022-09-13T08:21:09;100530.78;;;23.54;nan
10712;BME280;5407;51.234;6.804;2022-09-13T08:23:36;100529.94;;;23.57;nan
10712;BME280;5407;51.234;6.804;2022-09-13T08:26:05;100536.31;;;23.54;nan
10712;BME280;5407;51.234;6.804;2022-09-13T08:28:34;100533.13;;;23.56;nan
10712;BME280;5407;51.234;6.804;2022-09-13T08:31:05;100532.28;;;23.59;nan
10712;BME280;5407;51.234;6.804;2022-09-13T08:33:33;100529.50;;;23.59;nan
10712;BME280;5407;51.234;6.804;2022-09-13T08:36:01;100530.28;;;23.59;nan
10712;BME280;5407;51.234;6.804;2022-09-13T08:38:29;100538.88;;;23.61;nan
10712;BME280;5407;51.234;6.804;2022-09-13T08:40:58;100533.81;;;23.60;nan
10712;BME280;5407;51.234;6.804;2022-09-13T08:43:36;100527.09;;;23.61;nan
10712;BME280;5407;51.234;6.804;2022-09-13T08:46:10;100538.47;;;23.63;nan
10712;BME280;5407;51.234;6.804;2022-09-13T08:48:41;100540.75;;;23.64;nan
10712;BME280;5407;51.234;6.804;2022-09-13T08:51:28;100536.72;;;23.69;nan
10712;BME280;5407;51.234;6.804;2022-09-13T08:53:58;100538.28;;;23.70;nan
10712;BME280;5407;51.234;6.804;2022-09-13T08:56:31;100535.84;;;23.72;nan
10712;BME280;5407;51.234;6.804;2022-09-13T08:59:13;100536.53;;;23.75;nan
10712;BME280;5407;51.234;6.804;2022-09-13T09:01:53;100530.53;;;23.80;nan
10712;BME280;5407;51.234;6.804;2022-09-13T09:04:40;100532.91;;;23.78;nan
10712;BME280;5407;51.234;6.804;2022-09-13T09:07:12;100526.72;;;23.74;nan
10712;BME280;5407;51.234;6.804;2022-09-13T09:09:43;100529.41;;;23.78;nan
10712;BME280;5407;51.234;6.804;2022-09-13T09:12:20;100524.66;;;23.78;nan
10712;BME280;5407;51.234;6.804;2022-09-13T09:14:58;100518.38;;;23.78;nan
10712;BME280;5407;51.234;6.804;2022-09-13T09:17:31;100525.00;;;23.80;nan
10712;BME280;5407;51.234;6.804;2022-09-13T09:20:06;100523.81;;;23.81;nan
10712;BME280;5407;51.234;6.804;2022-09-13T09:22:35;100516.66;;;23.84;nan
10712;BME280;5407;51.234;6.804;2022-09-13T09:25:02;100526.91;;;23.83;nan
10712;BME280;5407;51.234;6.804;2022-09-13T09:27:30;100527.34;;;23.82;nan
10712;BME280;5407;51.234;6.804;2022-09-13T09:29:58;100525.28;;;23.86;nan
10712;BME280;5407;51.234;6.804;2022-09-13T09:33:00;100523.63;;;23.88;nan
10712;BME280;5407;51.234;6.804;2022-09-13T09:35:42;100522.44;;;23.89;nan
10712;BME280;5407;51.234;6.804;2022-09-13T09:38:32;100517.25;;;23.91;nan
10712;BME280;5407;51.234;6.804;2022-09-13T09:41:05;100521.91;;;23.94;nan
10712;BME280;5407;51.234;6.804;2022-09-13T09:43:38;100526.53;;;23.97;nan
10712;BME280;5407;51.234;6.804;2022-09-13T09:46:13;100525.66;;;24.00;nan
10712;BME280;5407;51.234;6.804;2022-09-13T09:48:45;100514.97;;;24.02;nan
10712;BME280;5407;51.234;6.804;2022-09-13T09:51:17;100519.19;;;24.07;nan
10712;BME280;5407;51.234;6.804;2022-09-13T09:53:47;100510.47;;;24.08;nan
10712;BME280;5407;51.234;6.804;2022-09-13T09:56:21;100508.94;;;24.07;nan
10712;BME280;5407;51.234;6.804;2022-09-13T09:58:49;100507.72;;;24.08;nan
10712;BME280;5407;51.234;6.804;2022-09-13T10:01:23;100516.00;;;24.08;nan
10712;BME280;5407;51.234;6.804;2022-09-13T10:04:01;100512.03;;;24.09;nan
10712;BME280;5407;51.234;6.804;2022-09-13T10:06:30;100508.06;;;24.10;nan
10712;BME280;5407;51.234;6.804;2022-09-13T10:08:59;100505.66;;;24.12;nan
10712;BME280;5407;51.234;6.804;2022-09-13T10:11:42;100503.88;;;24.18;nan
10712;BME280;5407;51.234;6.804;2022-09-13T10:14:35;100513.03;;;24.15;nan
10712;BME280;5407;51.234;6.804;2022-09-13T10:17:12;100508.53;;;24.21;nan
10712;BME280;5407;51.234;6.804;2022-09-13T10:19:40;100512.50;;;24.20;nan
10712;BME280;5407;51.234;6.804;2022-09-13T10:22:10;100497.16;;;24.19;nan
10712;BME280;5407;51.234;6.804;2022-09-13T10:24:38;100495.75;;;24.27;nan
10712;BME280;5407;51.234;6.804;2022-09-13T10:27:19;100506.78;;;24.27;nan
10712;BME280;5407;51.234;6.804;2022-09-13T10:29:49;100506.44;;;24.25;nan
10712;BME280;5407;51.234;6.804;2022-09-13T10:32:20;100496.97;;;24.26;nan
10712;BME280;5407;51.234;6.804;2022-09-13T10:34:48;100498.50;;;24.27;nan
10712;BME280;5407;51.234;6.804;2022-09-13T10:37:18;100498.84;;;24.29;nan
10712;BME280;5407;51.234;6.804;2022-09-13T10:39:53;100496.75;;;24.33;nan
10712;BME280;5407;51.234;6.804;2022-09-13T10:42:24;100497.88;;;24.36;nan
10712;BME280;5407;51.234;6.804;2022-09-13T10:44:53;100494.69;;;24.37;nan
10712;BME280;5407;51.234;6.804;2022-09-13T10:47:24;100497.00;;;24.39;nan
10712;BME280;5407;51.234;6.804;2022-09-13T10:49:54;100493.81;;;24.40;nan
10712;BME280;5407;51.234;6.804;2022-09-13T10:52:26;100497.56;;;24.46;nan
10712;BME280;5407;51.234;6.804;2022-09-13T10:54:54;100494.88;;;24.59;nan
10712;BME280;5407;51.234;6.804;2022-09-13T10:57:31;100500.16;;;24.53;nan
10712;BME280;5407;51.234;6.804;2022-09-13T10:59:59;100489.53;;;24.52;nan
10712;BME280;5407;51.234;6.804;2022-09-13T11:02:43;100487.09;;;24.54;nan
10712;BME280;5407;51.234;6.804;2022-09-13T11:05:20;100486.13;;;24.60;nan
10712;BME280;5407;51.234;6.804;2022-09-13T11:08:05;100489.00;;;24.69;nan
10712;BME280;5407;51.234;6.804;2022-09-13T11:10:43;100488.13;;;24.72;nan
10712;BME280;5407;51.234;6.804;2022-09-13T11:13:21;100491.22;;;24.74;nan
10712;BME280;5407;51.234;6.804;2022-09-13T11:15:57;100488.78;;;24.76;nan
10712;BME280;5407;51.234;6.804;2022-09-13T11:18:40;100491.88;;;24.78;nan
10712;BME280;5407;51.234;6.804;2022-09-13T11:21:21;100480.84;;;24.78;nan
10712;BME280;5407;51.234;6.804;2022-09-13T11:26:51;100478.41;;;24.80;nan
10712;BME280;5407;51.234;6.804;2022-09-13T11:29:37;100471.25;;;24.83;nan
10712;BME280;5407;51.234;6.804;2022-09-13T11:32:18;100475.53;;;24.84;nan
10712;BME280;5407;51.234;6.804;2022-09-13T11:35:04;100463.28;;;24.85;nan
10712;BME280;5407;51.234;6.804;2022-09-13T11:37:45;100464.41;;;24.87;nan
10712;BME280;5407;51.234;6.804;2022-09-13T11:40:33;100466.28;;;24.90;nan
10712;BME280;5407;51.234;6.804;2022-09-13T11:43:18;100460.31;;;24.92;nan
10712;BME280;5407;51.234;6.804;2022-09-13T11:45:57;100458.34;;;24.92;nan
10712;BME280;5407;51.234;6.804;2022-09-13T11:48:44;100446.72;;;24.97;nan
10712;BME280;5407;51.234;6.804;2022-09-13T11:51:19;100443.50;;;25.11;nan
10712;BME280;5407;51.234;6.804;2022-09-13T11:54:11;100434.56;;;25.20;nan
10712;BME280;5407;51.234;6.804;2022-09-13T11:56:45;100431.34;;;25.21;nan
10712;BME280;5407;51.234;6.804;2022-09-13T11:59:20;100433.34;;;25.21;nan
10712;BME280;5407;51.234;6.804;2022-09-13T12:01:53;100432.91;;;25.22;nan
10712;BME280;5407;51.234;6.804;2022-09-13T12:04:24;100437.84;;;25.27;nan
10712;BME280;5407;51.234;6.804;2022-09-13T12:06:57;100442.28;;;25.25;nan
10712;BME280;5407;51.234;6.804;2022-09-13T12:09:28;100435.97;;;25.24;nan
10712;BME280;5407;51.234;6.804;2022-09-13T12:12:02;100428.16;;;25.23;nan
10712;BME280;5407;51.234;6.804;2022-09-13T12:14:36;100426.47;;;25.25;nan
10712;BME280;5407;51.234;6.804;2022-09-13T12:17:12;100430.78;;;25.26;nan
10712;BME280;5407;51.234;6.804;2022-09-13T12:19:43;100424.03;;;25.27;nan
10712;BME280;5407;51.234;6.804;2022-09-13T12:22:13;100418.53;;;25.27;nan
10712;BME280;5407;51.234;6.804;2022-09-13T12:24:44;100416.09;;;25.29;nan
10712;BME280;5407;51.234;6.804;2022-09-13T12:27:21;100425.94;;;25.30;nan
10712;BME280;5407;51.234;6.804;2022-09-13T12:29:52;100431.47;;;25.30;nan
10712;BME280;5407;51.234;6.804;2022-09-13T12:32:21;100432.22;;;25.31;nan
10712;BME280;5407;51.234;6.804;2022-09-13T12:34:52;100427.03;;;25.33;nan
10712;BME280;5407;51.234;6.804;2022-09-13T12:37:42;100420.28;;;25.33;nan
10712;BME280;5407;51.234;6.804;2022-09-13T12:40:31;100411.25;;;25.33;nan
10712;BME280;5407;51.234;6.804;2022-09-13T12:43:22;100415.53;;;25.34;nan
10712;BME280;5407;51.234;6.804;2022-09-13T12:49:12;100417.09;;;25.35;nan
10712;BME280;5407;51.234;6.804;2022-09-13T12:52:12;100416.63;;;25.36;nan
10712;BME280;5407;51.234;6.804;2022-09-13T12:55:13;100421.38;;;25.36;nan
10712;BME280;5407;51.234;6.804;2022-09-13T12:57:50;100417.41;;;25.37;nan
10712;BME280;5407;51.234;6.804;2022-09-13T13:00:22;100418.94;;;25.38;nan
10712;BME280;5407;51.234;6.804;2022-09-13T13:02:55;100420.50;;;25.39;nan
10712;BME280;5407;51.234;6.804;2022-09-13T13:05:28;100415.72;;;25.39;nan
10712;BME280;5407;51.234;6.804;2022-09-13T13:07:59;100417.59;;;25.42;nan
10712;BME280;5407;51.234;6.804;2022-09-13T13:10:31;100419.59;;;25.42;nan
10712;BME280;5407;51.234;6.804;2022-09-13T13:13:14;100415.63;;;25.43;nan
10712;BME280;5407;51.234;6.804;2022-09-13T13:16:00;100410.72;;;25.47;nan
10712;BME280;5407;51.234;6.804;2022-09-13T13:18:29;100409.19;;;25.46;nan
10712;BME280;5407;51.234;6.804;2022-09-13T13:27:39;100412.28;;;25.48;nan
10712;BME280;5407;51.234;6.804;2022-09-13T13:30:41;100403.53;;;25.49;nan
10712;BME280;5407;51.234;6.804;2022-09-13T13:33:18;100402.75;;;25.49;nan
10712;BME280;5407;51.234;6.804;2022-09-13T13:35:45;100396.34;;;25.52;nan
10712;BME280;5407;51.234;6.804;2022-09-13T13:38:30;100400.22;;;25.54;nan
10712;BME280;5407;51.234;6.804;2022-09-13T13:41:06;100391.94;;;25.54;nan
10712;BME280;5407;51.234;6.804;2022-09-13T13:43:36;100389.91;;;25.55;nan
10712;BME280;5407;51.234;6.804;2022-09-13T13:46:25;100385.94;;;25.56;nan
10712;BME280;5407;51.234;6.804;2022-09-13T13:48:53;100393.00;;;25.57;nan
10712;BME280;5407;51.234;6.804;2022-09-13T13:51:22;100392.25;;;25.56;nan
10712;BME280;5407;51.234;6.804;2022-09-13T13:53:53;100390.25;;;25.57;nan
10712;BME280;5407;51.234;6.804;2022-09-13T13:56:29;100382.75;;;25.57;nan
10712;BME280;5407;51.234;6.804;2022-09-13T13:59:03;100394.13;;;25.59;nan
10712;BME280;5407;51.234;6.804;2022-09-13T14:01:33;100396.09;;;25.59;nan
10712;BME280;5407;51.234;6.804;2022-09-13T14:07:04;100386.59;;;25.60;nan
10712;BME280;5407;51.234;6.804;2022-09-13T14:09:38;100388.13;;;25.61;nan
10712;BME280;5407;51.234;6.804;2022-09-13T14:12:20;100382.91;;;25.63;nan
10712;BME280;5407;51.234;6.804;2022-09-13T14:15:18;100376.63;;;25.62;nan